Time;durP1;ratioP1;P1;durP2;ratioP2;P2;SDS_P1;SDS_P2;PMS_P1;PMS_P2;Temp;Humidity;BMP_temperature;BMP_pressure;BME280_temperature;BME280_humidity;BME280_pressure;Samples;Min_cycle;Max_cycle;Signal;HPM_P1;HPM_P2
2021/03/27 00:00:58;;;;;;;47.28;29.55;;;;;;;6.07;74.83;100515.72;5036346;28;20028;-60
2021/03/27 00:03:29;;;;;;;45.63;32.13;;;;;;;6.09;74.69;100510.47;5035663;28;20392;-60
2021/03/27 00:05:57;;;;;;;42.88;31.13;;;;;;;6.09;74.57;100507.88;5038022;28;20029;-60
2021/03/27 00:08:52;;;;;;;49.13;31.67;;;;;;;6.03;74.82;100504.34;5052199;28;20025;-61
2021/03/27 00:11:30;;;;;;;43.55;31.25;;;;;;;6.14;75.16;100506.19;5040631;28;20044;-60
2021/03/27 00:14:01;;;;;;;42.17;30.20;;;;;;;6.11;76.67;100506.16;5039811;28;20383;-60
2021/03/27 00:16:32;;;;;;;43.30;32.53;;;;;;;6.18;76.24;100501.81;5025039;28;20503;-60
2021/03/27 00:19:10;;;;;;;40.53;31.17;;;;;;;6.52;74.78;100495.03;5023095;28;20228;-60
2021/03/27 00:21:51;;;;;;;42.83;31.48;;;;;;;6.54;73.16;100495.06;5047604;28;20369;-60
2021/03/27 00:24:18;;;;;;;40.17;31.25;;;;;;;6.37;75.66;100502.81;5034749;28;20033;-60
2021/03/27 00:27:01;;;;;;;42.00;32.15;;;;;;;6.44;75.42;100491.50;5034793;28;20032;-60
2021/03/27 00:29:36;;;;;;;42.63;30.15;;;;;;;6.76;73.80;100495.13;5035567;28;20030;-60
2021/03/27 00:32:08;;;;;;;38.03;29.63;;;;;;;6.68;74.36;100498.59;5035073;28;20025;-60
2021/03/27 00:34:37;;;;;;;44.33;30.60;;;;;;;6.69;75.00;100494.22;5042691;28;20104;-60
2021/03/27 00:37:04;;;;;;;39.70;29.30;;;;;;;6.97;72.94;100489.06;5026252;28;20033;-60
2021/03/27 00:39:52;;;;;;;39.78;30.42;;;;;;;7.01;72.99;100489.97;5033174;28;20032;-60
2021/03/27 00:42:21;;;;;;;40.60;28.88;;;;;;;6.94;73.20;100483.84;5016620;28;20088;-60
2021/03/27 00:45:00;;;;;;;37.92;30.20;;;;;;;6.92;73.65;100482.94;5030701;28;20115;-61
2021/03/27 00:47:28;;;;;;;41.53;29.27;;;;;;;6.98;73.22;100482.09;5054426;28;20021;-60
2021/03/27 00:50:01;;;;;;;43.45;30.67;;;;;;;7.17;72.31;100477.78;5045806;28;20032;-61
2021/03/27 00:52:27;;;;;;;39.15;27.77;;;;;;;7.15;72.54;100471.63;5038760;28;20547;-60
2021/03/27 00:55:03;;;;;;;38.78;29.13;;;;;;;6.90;74.75;100475.06;5046513;28;20087;-61
2021/03/27 00:57:32;;;;;;;39.60;28.65;;;;;;;6.83;73.87;100475.06;5030758;28;20133;-60
2021/03/27 01:00:19;;;;;;;37.30;28.77;;;;;;;6.95;72.67;100469.84;5036173;28;20472;-60
2021/03/27 01:02:48;;;;;;;37.78;29.30;;;;;;;7.16;71.78;100468.13;5024003;28;20049;-61
2021/03/27 01:05:16;;;;;;;39.55;28.58;;;;;;;7.15;71.23;100466.41;5017500;28;20374;-60
2021/03/27 01:07:42;;;;;;;36.72;28.60;;;;;;;6.98;73.65;100461.13;5045158;28;20060;-61
2021/03/27 01:10:12;;;;;;;41.35;28.63;;;;;;;7.12;72.58;100461.13;5050245;28;20411;-61
2021/03/27 01:12:39;;;;;;;35.75;28.23;;;;;;;7.15;72.55;100455.91;5035824;28;20151;-60
2021/03/27 01:15:27;;;;;;;38.50;28.10;;;;;;;6.97;73.32;100454.97;5033014;28;20033;-60
2021/03/27 01:17:55;;;;;;;36.33;27.65;;;;;;;6.74;74.24;100453.16;5018704;28;20033;-60
2021/03/27 01:20:24;;;;;;;37.28;28.77;;;;;;;6.75;75.48;100454.06;5048665;28;20380;-60
2021/03/27 01:22:51;;;;;;;37.60;26.75;;;;;;;6.82;74.58;100457.56;5015878;28;20040;-60
2021/03/27 01:25:43;;;;;;;35.88;27.35;;;;;;;6.86;74.40;100448.84;5044233;28;20507;-60
2021/03/27 01:28:16;;;;;;;33.30;26.10;;;;;;;6.88;74.22;100447.09;5031231;28;20460;-60
2021/03/27 01:30:54;;;;;;;33.53;25.90;;;;;;;6.94;74.36;100455.00;5040183;28;20061;-60
2021/03/27 01:33:31;;;;;;;34.72;27.30;;;;;;;6.90;74.28;100458.44;5035003;28;20116;-60
2021/03/27 01:36:07;;;;;;;37.85;27.10;;;;;;;6.84;73.91;100450.59;5035690;28;20365;-60
2021/03/27 01:38:38;;;;;;;35.22;25.58;;;;;;;6.71;74.89;100441.81;5034879;28;20305;-60
2021/03/27 01:41:11;;;;;;;31.55;25.50;;;;;;;6.85;75.03;100441.84;5052539;28;20025;-60
2021/03/27 01:43:52;;;;;;;30.38;25.38;;;;;;;6.77;74.67;100453.19;5039771;28;20040;-60
2021/03/27 01:46:38;;;;;;;40.35;27.52;;;;;;;6.82;75.19;100437.47;5038469;28;20033;-60
2021/03/27 01:49:24;;;;;;;36.80;26.90;;;;;;;6.76;74.37;100438.34;5042810;28;20040;-61
2021/03/27 01:52:13;;;;;;;34.95;27.08;;;;;;;6.94;73.96;100431.41;5053023;28;20540;-60
2021/03/27 01:54:49;;;;;;;32.92;25.95;;;;;;;7.31;71.76;100430.56;5034765;28;20071;-60
2021/03/27 01:57:20;;;;;;;37.83;26.92;;;;;;;6.74;74.84;100429.56;5039322;28;20555;-60
2021/03/27 01:59:52;;;;;;;37.03;26.92;;;;;;;6.70;75.07;100433.06;5053123;28;20048;-60
2021/03/27 02:02:20;;;;;;;;;;;;;;;6.80;73.16;100424.38;5036381;28;20033;-60
2021/03/27 02:05:16;;;;;;;33.25;25.45;;;;;;;6.82;72.93;100421.75;5033352;28;19928;-60
2021/03/27 02:08:03;;;;;;;32.35;24.63;;;;;;;6.76;73.51;100422.59;5053237;28;20024;-60
2021/03/27 02:10:54;;;;;;;39.15;28.10;;;;;;;6.80;73.01;100423.47;5052683;28;20055;-60
2021/03/27 02:13:41;;;;;;;34.65;25.13;;;;;;;6.52;74.65;100420.78;5035063;28;20638;-60
2021/03/27 02:16:31;;;;;;;36.40;25.10;;;;;;;6.36;75.30;100417.22;5034782;28;20029;-60
2021/03/27 02:19:24;;;;;;;29.60;25.02;;;;;;;6.07;76.91;100418.81;5034434;28;20041;-60
2021/03/27 02:21:49;;;;;;;32.03;24.98;;;;;;;5.90;78.00;100418.69;5032804;28;20053;-60
2021/03/27 02:24:35;;;;;;;37.43;26.77;;;;;;;5.93;78.03;100417.88;5045033;28;20061;-60
2021/03/27 02:27:11;;;;;;;31.38;26.20;;;;;;;6.35;76.17;100426.84;5028838;28;20272;-60
2021/03/27 02:30:06;;;;;;;33.42;25.83;;;;;;;6.54;74.37;100424.31;5033562;28;20025;-60
2021/03/27 02:33:02;;;;;;;35.63;25.85;;;;;;;6.86;72.67;100422.63;5015087;28;20109;-60
2021/03/27 02:35:59;;;;;;;31.23;25.02;;;;;;;7.17;71.03;100417.44;5044687;28;20025;-60
2021/03/27 02:38:55;;;;;;;31.58;25.05;;;;;;;7.09;71.93;100413.91;5032625;28;20036;-60
2021/03/27 02:41:45;;;;;;;31.25;25.40;;;;;;;7.11;71.01;100418.31;5051996;28;20023;-60
2021/03/27 02:44:32;;;;;;;33.63;24.60;;;;;;;6.94;72.44;100413.03;5032611;28;20486;-60
2021/03/27 02:47:29;;;;;;;28.50;24.15;;;;;;;7.18;70.64;100413.94;5035389;28;20094;-60
2021/03/27 02:50:16;;;;;;;30.17;24.77;;;;;;;6.88;72.96;100416.53;5052281;28;20032;-60
2021/03/27 02:53:12;;;;;;;29.50;21.75;;;;;;;7.06;73.69;100420.94;5042833;28;20071;-60
2021/03/27 02:55:47;;;;;;;29.88;24.42;;;;;;;6.79;74.52;100414.75;5035620;28;20028;-60
2021/03/27 02:58:19;;;;;;;31.17;22.88;;;;;;;6.84;74.64;100406.91;5055523;28;20698;-60
2021/03/27 03:01:02;;;;;;;32.67;23.10;;;;;;;6.63;75.60;100411.22;5031991;28;20032;-61
2021/03/27 03:03:35;;;;;;;29.63;23.63;;;;;;;6.66;75.89;100405.09;5030926;28;20040;-60
2021/03/27 03:06:25;;;;;;;30.38;23.67;;;;;;;6.79;74.65;100406.91;5030213;28;20032;-60
2021/03/27 03:09:06;;;;;;;30.75;21.70;;;;;;;6.68;74.68;100398.97;5049168;28;20108;-60
2021/03/27 03:11:51;;;;;;;30.70;22.80;;;;;;;6.68;74.47;100398.13;5028731;28;20459;-60
2021/03/27 03:14:34;;;;;;;34.47;22.77;;;;;;;6.67;74.38;100402.47;5048478;28;20468;-60
2021/03/27 03:17:20;;;;;;;25.70;21.77;;;;;;;6.52;75.47;100403.31;5027652;28;20041;-60
2021/03/27 03:19:59;;;;;;;26.70;22.50;;;;;;;6.44;74.73;100407.66;5029767;28;20094;-60
2021/03/27 03:22:49;;;;;;;27.25;22.88;;;;;;;6.22;76.15;100402.34;5033019;28;20399;-60
2021/03/27 03:25:19;;;;;;;27.33;21.45;;;;;;;6.00;77.42;100402.19;5050346;28;20385;-61
2021/03/27 03:28:30;;;;;;;30.67;23.75;;;;;;;6.01;77.13;100401.31;5021909;28;20087;-60
2021/03/27 03:31:13;;;;;;;35.05;24.92;;;;;;;6.11;76.70;100393.56;4935581;29;20483;-60
2021/03/27 03:33:50;;;;;;;28.67;22.70;;;;;;;6.24;75.72;100395.34;4935469;29;20207;-60
2021/03/27 03:36:43;;;;;;;31.83;22.67;;;;;;;6.23;75.75;100390.97;4992599;28;20037;-60
2021/03/27 03:39:36;;;;;;;29.45;22.67;;;;;;;6.46;74.39;100382.34;5017852;28;20060;-60
2021/03/27 03:42:13;;;;;;;25.23;21.00;;;;;;;6.21;76.31;100387.50;5052326;28;20499;-60
2021/03/27 03:44:57;;;;;;;27.42;21.38;;;;;;;6.29;75.78;100380.53;5020023;28;20538;-60
2021/03/27 03:47:50;;;;;;;27.35;21.92;;;;;;;6.41;74.88;100381.47;5031762;28;20026;-60
2021/03/27 03:50:20;;;;;;;28.40;20.38;;;;;;;6.67;72.85;100386.75;5031533;28;20329;-61
2021/03/27 03:52:54;;;;;;;26.67;20.55;;;;;;;6.40;74.66;100393.66;5042354;28;20036;-60
2021/03/27 03:55:31;;;;;;;24.92;21.30;;;;;;;6.24;74.52;100390.09;5039998;28;20039;-60
2021/03/27 03:58:35;;;;;;;24.17;20.30;;;;;;;6.22;74.39;100393.59;5051294;28;20040;-60
2021/03/27 04:01:25;;;;;;;26.80;21.10;;;;;;;6.11;75.25;100388.31;4950350;29;20027;-60
2021/03/27 04:04:06;;;;;;;31.38;23.92;;;;;;;6.07;75.00;100387.41;5034933;28;20116;-60
2021/03/27 04:06:34;;;;;;;27.70;23.20;;;;;;;6.22;74.21;100384.00;5015495;28;20026;-60
2021/03/27 04:09:13;;;;;;;31.65;22.80;;;;;;;6.28;73.48;100378.75;5032942;28;20079;-60
2021/03/27 04:12:00;;;;;;;25.45;20.95;;;;;;;6.53;72.91;100372.75;5033443;28;20040;-60
2021/03/27 04:14:49;;;;;;;26.52;21.02;;;;;;;6.22;73.93;100365.66;5035322;28;20022;-60
2021/03/27 04:17:22;;;;;;;24.73;20.10;;;;;;;6.19;74.07;100344.69;5035751;28;20117;-60
2021/03/27 04:19:56;;;;;;;28.10;20.67;;;;;;;6.35;73.42;100337.78;5025735;28;20025;-60
2021/03/27 04:22:49;;;;;;;25.55;19.70;;;;;;;6.02;75.34;100340.25;5026931;28;20040;-60
2021/03/27 04:25:37;;;;;;;23.52;19.63;;;;;;;5.59;76.21;100334.78;4991423;28;20067;-60
2021/03/27 04:28:13;;;;;;;25.25;20.77;;;;;;;5.64;77.35;100347.00;5047787;28;20036;-60
2021/03/27 04:30:47;;;;;;;24.75;19.98;;;;;;;5.82;75.75;100349.72;5016993;28;20473;-60
2021/03/27 04:33:37;;;;;;;23.70;19.98;;;;;;;5.82;75.77;100348.00;5045012;28;20036;-60
2021/03/27 04:36:10;;;;;;;27.45;20.38;;;;;;;5.70;77.17;100351.41;5051319;28;20040;-60
2021/03/27 04:38:47;;;;;;;25.70;19.35;;;;;;;5.73;74.85;100343.59;5034829;28;20034;-61
2021/03/27 04:41:26;;;;;;;23.50;19.80;;;;;;;5.81;75.06;100350.59;5036617;28;20028;-60
2021/03/27 04:44:16;;;;;;;26.63;20.17;;;;;;;5.68;75.32;100342.69;5018228;28;20029;-60
2021/03/27 04:46:50;;;;;;;24.88;20.00;;;;;;;5.74;77.75;100342.72;5021127;28;20029;-60
2021/03/27 04:49:24;;;;;;;23.27;19.58;;;;;;;5.92;78.03;100335.84;5043615;28;20029;-61
2021/03/27 04:52:11;;;;;;;25.08;18.27;;;;;;;6.21;76.47;100344.72;5034521;28;20033;-60
2021/03/27 04:54:56;;;;;;;26.00;19.13;;;;;;;6.39;75.33;100341.25;5016506;28;20018;-59
2021/03/27 04:57:21;;;;;;;23.65;19.02;;;;;;;6.47;75.75;100342.16;5042026;28;20079;-58
2021/03/27 05:00:17;;;;;;;28.10;20.00;;;;;;;6.74;74.53;100343.09;5046716;28;20021;-59
2021/03/27 05:03:01;;;;;;;27.83;19.70;;;;;;;6.63;74.83;100336.94;5035882;28;20079;-59
2021/03/27 05:05:28;;;;;;;23.58;19.10;;;;;;;6.79;74.75;100349.22;5054072;28;20028;-59
2021/03/27 05:07:59;;;;;;;25.35;17.27;;;;;;;7.01;74.34;100343.13;5027652;28;20037;-58
2021/03/27 05:10:30;;;;;;;;;;;;;;;7.16;73.09;100350.09;5065279;28;20033;-59
2021/03/27 05:13:14;;;;;;;23.13;19.75;;;;;;;7.39;72.32;100343.97;5040235;28;20206;-59
2021/03/27 05:15:51;;;;;;;23.77;18.98;;;;;;;7.33;72.72;100355.34;5026311;28;20098;-59
2021/03/27 05:18:34;;;;;;;20.88;18.02;;;;;;;7.32;73.19;100349.25;5053365;28;20051;-59
2021/03/27 05:21:08;;;;;;;24.25;17.40;;;;;;;7.32;73.39;100353.59;5053765;28;20202;-59
2021/03/27 05:24:09;;;;;;;24.40;18.90;;;;;;;7.18;74.37;100356.22;5052464;28;20021;-59
2021/03/27 05:26:41;;;;;;;25.27;20.70;;;;;;;7.23;74.70;100356.25;5037571;28;20112;-58
2021/03/27 05:29:14;;;;;;;23.02;18.55;;;;;;;7.51;74.03;100358.84;5053589;28;20377;-59
2021/03/27 05:31:56;;;;;;;23.25;19.23;;;;;;;7.83;73.15;100356.13;5053341;28;20029;-59
2021/03/27 05:34:27;;;;;;;24.38;18.73;;;;;;;8.02;71.98;100355.19;5035694;28;20035;-59
2021/03/27 05:37:13;;;;;;;21.63;16.30;;;;;;;8.32;72.04;100338.44;5027804;28;20108;-59
2021/03/27 05:39:56;;;;;;;18.20;14.48;;;;;;;8.47;71.57;100344.47;5039428;28;20035;-59
2021/03/27 05:43:16;;;;;;;19.52;13.90;;;;;;;8.85;70.80;100343.41;5044098;28;20037;-59
2021/03/27 05:46:06;;;;;;;16.17;13.95;;;;;;;9.10;69.92;100343.19;4986478;28;20177;-59
2021/03/27 05:49:09;;;;;;;16.15;14.45;;;;;;;9.26;69.26;100350.97;4991610;28;20100;-59
2021/03/27 05:51:55;;;;;;;17.95;13.75;;;;;;;9.54;68.02;100345.44;5031954;28;20069;-59
2021/03/27 05:54:29;;;;;;;18.48;14.05;;;;;;;9.65;66.49;100350.59;5051909;28;20033;-59
2021/03/27 05:57:11;;;;;;;16.27;12.77;;;;;;;9.89;65.96;100356.47;5053481;28;20024;-58
2021/03/27 06:00:03;;;;;;;15.25;12.68;;;;;;;10.12;65.75;100364.13;5052552;28;20074;-58
2021/03/27 06:02:34;;;;;;;18.65;14.10;;;;;;;10.04;65.02;100368.59;5008368;28;20024;-58
2021/03/27 06:05:18;;;;;;;14.80;13.00;;;;;;;10.16;65.15;100383.41;5051784;28;20020;-59
2021/03/27 06:08:02;;;;;;;15.95;12.73;;;;;;;9.86;65.43;100393.38;5042795;28;20381;-59
2021/03/27 06:10:42;;;;;;;14.27;12.07;;;;;;;10.14;64.58;100395.72;5023303;28;20028;-60
2021/03/27 06:13:45;;;;;;;14.40;12.90;;;;;;;9.83;63.95;100388.16;5040152;28;20051;-59
2021/03/27 06:16:19;;;;;;;14.27;11.75;;;;;;;9.80;64.58;100394.31;5051954;28;20021;-58
2021/03/27 06:19:08;;;;;;;14.35;11.93;;;;;;;9.98;65.05;100405.56;5048858;28;20079;-60
2021/03/27 06:21:55;;;;;;;13.90;12.20;;;;;;;10.05;66.13;100411.63;5015146;28;20087;-59
2021/03/27 06:24:49;;;;;;;16.63;12.52;;;;;;;10.08;66.07;100425.66;5014430;28;20143;-59
2021/03/27 06:27:38;;;;;;;18.13;13.35;;;;;;;10.17;66.08;100444.91;5019761;28;20104;-60
2021/03/27 06:30:36;;;;;;;238.38;28.90;;;;;;;10.61;64.41;100475.16;5017751;28;20170;-61
2021/03/27 06:33:29;;;;;;;8.80;7.90;;;;;;;10.65;63.82;100476.88;5034707;28;20499;-60
2021/03/27 06:35:59;;;;;;;12.07;9.43;;;;;;;10.28;65.78;100482.56;5020274;28;20024;-60
2021/03/27 06:38:57;;;;;;;9.13;7.15;;;;;;;10.39;64.08;100501.75;5034601;28;20055;-59
2021/03/27 06:42:00;;;;;;;5.45;4.85;;;;;;;9.94;64.80;100535.59;5019738;28;20052;-60
2021/03/27 06:44:55;;;;;;;5.00;4.47;;;;;;;9.84;65.31;100571.66;5038610;28;20025;-60
2021/03/27 06:47:45;;;;;;;4.78;4.28;;;;;;;9.75;65.28;100604.22;5027926;28;20025;-60
2021/03/27 06:50:51;;;;;;;4.70;3.78;;;;;;;9.28;67.01;100620.28;5040806;28;20037;-59
2021/03/27 06:53:22;;;;;;;3.35;3.05;;;;;;;9.29;66.31;100621.13;4983138;28;20076;-60
2021/03/27 06:56:06;;;;;;;3.17;2.88;;;;;;;9.36;65.71;100638.66;5025973;28;20506;-59
2021/03/27 06:58:56;;;;;;;3.03;2.50;;;;;;;9.06;66.44;100640.53;5051805;28;20033;-60
2021/03/27 07:01:33;;;;;;;3.58;2.47;;;;;;;9.22;64.87;100654.50;5050016;28;20026;-60
2021/03/27 07:04:32;;;;;;;1.50;1.40;;;;;;;9.14;63.42;100628.22;5051763;28;20137;-60
2021/03/27 07:07:08;;;;;;;1.17;0.98;;;;;;;9.13;63.42;100641.41;5041929;28;20022;-60
2021/03/27 07:10:11;;;;;;;1.10;1.02;;;;;;;8.95;64.62;100673.00;5036042;28;20269;-60
2021/03/27 07:12:48;;;;;;;0.90;0.90;;;;;;;8.36;67.91;100701.09;5047202;28;20484;-60
2021/03/27 07:15:45;;;;;;;0.77;0.77;;;;;;;8.47;68.26;100699.31;5050462;28;20564;-60
2021/03/27 07:18:27;;;;;;;1.30;1.20;;;;;;;8.39;67.70;100722.09;5051202;28;20167;-59
2021/03/27 07:21:31;;;;;;;0.80;0.80;;;;;;;8.27;68.39;100718.56;5016291;28;20048;-57
2021/03/27 07:24:04;;;;;;;1.73;1.63;;;;;;;8.37;68.21;100722.09;5009270;28;20491;-60
2021/03/27 07:26:57;;;;;;;1.63;1.33;;;;;;;8.53;66.70;100725.63;5028385;28;20111;-60
2021/03/27 07:29:53;;;;;;;5.88;3.97;;;;;;;8.47;66.76;100733.47;5027826;28;20021;-57
2021/03/27 07:32:45;;;;;;;3.17;2.42;;;;;;;8.63;66.59;100731.78;5034729;28;20507;-59
2021/03/27 07:35:50;;;;;;;1.63;1.52;;;;;;;8.70;66.97;100746.66;5036228;28;20108;-58
2021/03/27 07:38:22;;;;;;;4.40;2.17;;;;;;;9.01;66.49;100737.91;5049942;28;20358;-58
2021/03/27 07:40:57;;;;;;;2.65;1.50;;;;;;;8.77;65.66;100744.91;5031639;28;20037;-58
2021/03/27 07:43:35;;;;;;;2.70;1.90;;;;;;;9.03;63.83;100758.94;5022540;28;20033;-58
2021/03/27 07:46:22;;;;;;;8.73;2.85;;;;;;;8.89;64.60;100758.94;5033963;28;20029;-58
2021/03/27 07:49:18;;;;;;;2.95;2.72;;;;;;;9.29;63.26;100769.41;5051626;28;20021;-58
2021/03/27 07:52:04;;;;;;;5.13;2.70;;;;;;;9.55;60.87;100765.84;5033781;28;20047;-58
2021/03/27 07:54:45;;;;;;;3.38;2.60;;;;;;;9.73;61.48;100767.50;5030452;28;20021;-59
2021/03/27 07:57:10;;;;;;;3.13;2.83;;;;;;;10.09;59.15;100777.91;5036805;28;20087;-60
2021/03/27 08:00:12;;;;;;;4.00;2.95;;;;;;;9.76;59.28;100785.06;5031364;28;20112;-60
2021/03/27 08:03:15;;;;;;;2.70;2.50;;;;;;;9.34;60.42;100798.38;5017008;28;20025;-60
2021/03/27 08:05:59;;;;;;;3.20;2.90;;;;;;;11.19;55.86;100804.38;5045316;28;20032;-60
2021/03/27 08:08:46;;;;;;;5.57;2.47;;;;;;;13.60;50.98;100801.84;5053979;28;20029;-58
2021/03/27 08:11:23;;;;;;;2.53;2.33;;;;;;;14.93;46.69;100796.28;5049979;28;20055;-60
2021/03/27 08:14:07;;;;;;;40.20;5.72;;;;;;;14.42;47.53;100824.91;5034661;28;20162;-60
2021/03/27 08:16:39;;;;;;;2.45;2.22;;;;;;;14.86;47.10;100832.75;5052005;28;20480;-58
2021/03/27 08:19:35;;;;;;;2.50;2.30;;;;;;;15.17;45.29;100824.00;5051869;28;20540;-58
2021/03/27 08:22:03;;;;;;;2.30;2.10;;;;;;;14.12;47.37;100846.75;5051681;28;20040;-58
2021/03/27 08:24:44;;;;;;;4.72;2.40;;;;;;;14.40;46.24;100850.59;5051499;28;20029;-58
2021/03/27 08:27:24;;;;;;;11.40;2.40;;;;;;;15.74;44.49;100839.34;5050418;28;20095;-58
2021/03/27 08:29:58;;;;;;;3.17;2.72;;;;;;;17.57;39.70;100843.38;5030383;28;20393;-58
2021/03/27 08:32:32;;;;;;;8.65;2.53;;;;;;;17.61;39.65;100846.81;5045156;28;20050;-59
2021/03/27 08:35:18;;;;;;;3.88;1.98;;;;;;;16.94;38.76;100862.38;5050237;28;20155;-59
2021/03/27 08:38:10;;;;;;;3.03;2.40;;;;;;;15.97;41.63;100859.97;5013594;28;20495;-58
2021/03/27 08:41:11;;;;;;;5.35;2.45;;;;;;;16.37;39.62;100862.41;5016261;28;20095;-59
2021/03/27 08:43:45;;;;;;;;;;;;;;;16.44;39.73;100863.94;5051357;28;20128;-58
2021/03/27 08:46:23;;;;;;;10.13;2.40;;;;;;;17.82;38.40;100866.53;5049122;28;20296;-59
2021/03/27 08:49:04;;;;;;;3.40;1.50;;;;;;;18.04;36.77;100864.84;5050992;28;20112;-59
2021/03/27 08:51:48;;;;;;;9.32;1.90;;;;;;;18.57;35.93;100873.53;5033622;28;20037;-59
2021/03/27 08:54:37;;;;;;;2.42;1.35;;;;;;;18.27;34.54;100869.34;5047986;28;20060;-59
2021/03/27 08:57:23;;;;;;;113.00;9.55;;;;;;;17.88;35.45;100859.22;5002228;28;20504;-58
2021/03/27 09:00:15;;;;;;;2.67;1.40;;;;;;;17.34;35.05;100870.00;5039387;28;20068;-61
2021/03/27 09:03:04;;;;;;;7.43;2.47;;;;;;;17.49;36.06;100882.78;5052574;28;20102;-59
2021/03/27 09:05:40;;;;;;;2.00;1.38;;;;;;;16.14;37.88;100887.91;5031487;28;20188;-59
2021/03/27 09:08:30;;;;;;;29.27;3.17;;;;;;;16.51;37.07;100892.09;5017693;28;20017;-59
2021/03/27 09:11:12;;;;;;;8.00;1.98;;;;;;;17.18;37.11;100905.16;5050504;28;20426;-58
2021/03/27 09:13:47;;;;;;;4.15;1.80;;;;;;;17.06;37.51;100898.44;5026184;28;20400;-59
2021/03/27 09:16:27;;;;;;;49.72;5.82;;;;;;;16.57;36.49;100904.34;5013098;28;20029;-59
2021/03/27 09:19:06;;;;;;;4.00;1.83;;;;;;;17.82;36.01;100909.19;5012937;28;20068;-59
2021/03/27 09:22:09;;;;;;;5.00;1.85;;;;;;;19.34;32.83;100917.66;5032744;28;20022;-59
2021/03/27 09:24:44;;;;;;;8.10;1.70;;;;;;;19.12;32.59;100900.78;5030774;28;20051;-58
2021/03/27 09:27:47;;;;;;;32.45;3.28;;;;;;;18.63;33.92;100904.47;5030902;28;20014;-60
2021/03/27 09:30:15;;;;;;;14.50;2.72;;;;;;;18.17;34.09;100919.53;5030219;28;20029;-60
2021/03/27 09:32:53;;;;;;;3.47;1.70;;;;;;;19.05;32.81;100921.53;5032601;28;20040;-60
2021/03/27 09:35:29;;;;;;;2.90;1.50;;;;;;;19.12;33.63;100924.84;5032948;28;20117;-59
2021/03/27 09:38:20;;;;;;;1.50;1.17;;;;;;;20.09;30.57;100930.53;5031974;28;20417;-59
2021/03/27 09:41:03;;;;;;;3.20;1.52;;;;;;;18.76;32.10;100923.56;5022184;28;20163;-59
2021/03/27 09:43:54;;;;;;;4.60;1.30;;;;;;;19.62;31.63;100934.34;5041244;28;20052;-58
2021/03/27 09:46:32;;;;;;;4.13;1.70;;;;;;;16.67;34.49;100932.47;5023606;28;20067;-59
2021/03/27 09:49:17;;;;;;;2.45;1.27;;;;;;;16.45;36.49;100929.56;5039194;28;20567;-58
2021/03/27 09:52:04;;;;;;;1.80;1.52;;;;;;;18.17;33.29;100951.56;5021181;28;20039;-58
2021/03/27 09:54:46;;;;;;;7.13;1.20;;;;;;;19.25;31.90;100942.13;5052344;28;20028;-59
2021/03/27 09:57:46;;;;;;;1.25;1.10;;;;;;;20.45;30.56;100936.09;5012308;28;20076;-61
2021/03/27 10:00:20;;;;;;;3.78;2.00;;;;;;;18.83;31.23;100943.75;5011123;28;20040;-61
2021/03/27 10:03:38;;;;;;;7.00;2.10;;;;;;;16.20;36.53;100959.56;5016827;28;20044;-59
2021/03/27 10:06:32;;;;;;;12.80;2.63;;;;;;;20.07;32.24;100959.19;4953495;28;20093;-58
2021/03/27 10:09:34;;;;;;;3.90;2.10;;;;;;;18.92;31.20;100956.78;4968005;28;20022;-60
2021/03/27 10:12:04;;;;;;;12.68;2.78;;;;;;;18.19;32.36;100960.41;5016436;28;20040;-59
2021/03/27 10:14:34;;;;;;;15.85;2.50;;;;;;;15.25;37.39;100969.94;5044577;28;20033;-62
2021/03/27 10:17:07;;;;;;;2.25;2.05;;;;;;;14.54;39.69;100980.34;5029752;28;20559;-62
2021/03/27 10:19:40;;;;;;;2.05;1.95;;;;;;;16.25;36.03;100981.59;5048204;28;20112;-62
2021/03/27 10:22:32;;;;;;;2.38;2.15;;;;;;;13.70;41.86;100973.03;5031043;28;20224;-62
2021/03/27 10:25:22;;;;;;;3.50;2.10;;;;;;;13.81;41.36;100977.28;5046456;28;20651;-61
2021/03/27 10:28:04;;;;;;;4.78;2.15;;;;;;;14.30;39.61;100977.28;5049340;28;20037;-65
2021/03/27 10:30:53;;;;;;;5.50;2.13;;;;;;;16.36;39.06;100985.72;5022177;28;20025;-62
2021/03/27 10:33:36;;;;;;;7.90;2.00;;;;;;;16.31;37.02;100985.00;5048734;28;20044;-59
2021/03/27 10:36:21;;;;;;;7.35;1.65;;;;;;;15.32;36.32;100978.63;5048648;28;20496;-60
2021/03/27 10:39:16;;;;;;;8.00;2.03;;;;;;;15.84;35.72;100978.25;5030259;28;20037;-61
2021/03/27 10:41:56;;;;;;;7.55;1.83;;;;;;;19.80;31.38;100972.81;5018964;28;20108;-59
2021/03/27 10:44:50;;;;;;;2.00;0.80;;;;;;;19.07;29.96;100973.13;5011761;28;20033;-62
2021/03/27 10:47:24;;;;;;;3.20;1.58;;;;;;;16.58;34.93;100987.78;5011760;28;20159;-62
2021/03/27 10:49:59;;;;;;;1.90;0.70;;;;;;;16.16;34.04;100965.88;5022100;28;20617;-61
2021/03/27 10:52:35;;;;;;;18.50;3.10;;;;;;;15.32;35.98;100975.97;5028990;28;20697;-61
2021/03/27 10:55:19;;;;;;;8.68;1.48;;;;;;;17.53;33.26;100960.88;5011248;28;20069;-63
2021/03/27 10:58:22;;;;;;;1.02;0.63;;;;;;;18.83;30.55;100967.81;5047112;28;20029;-67
2021/03/27 11:01:18;;;;;;;7.20;1.45;;;;;;;21.32;26.28;100980.22;5048395;28;20484;-65
2021/03/27 11:04:01;;;;;;;11.73;1.90;;;;;;;21.66;26.47;100964.22;5029766;28;20025;-66
2021/03/27 11:06:49;;;;;;;6.82;1.27;;;;;;;23.30;23.87;100960.81;5048733;28;20069;-66
2021/03/27 11:09:33;;;;;;;15.80;2.28;;;;;;;23.30;23.48;100956.28;5047763;28;20422;-64
2021/03/27 11:12:20;;;;;;;4.43;1.17;;;;;;;21.56;25.46;100979.06;5043210;28;20449;-63
2021/03/27 11:15:12;;;;;;;3.13;1.23;;;;;;;18.96;28.58;100974.41;5048104;28;20028;-65
2021/03/27 11:17:51;;;;;;;2.40;1.80;;;;;;;17.44;31.58;100972.75;5046714;28;20075;-65
2021/03/27 11:20:40;;;;;;;4.50;1.80;;;;;;;17.76;33.84;100973.44;5048374;28;20020;-64
2021/03/27 11:23:22;;;;;;;8.32;2.08;;;;;;;17.62;33.89;100986.34;5038650;28;20044;-65
2021/03/27 11:26:16;;;;;;;13.75;2.35;;;;;;;16.60;33.97;100991.28;5031768;28;20032;-65
2021/03/27 11:28:48;;;;;;;5.35;1.58;;;;;;;16.13;35.43;100992.56;5046048;28;20032;-64
2021/03/27 11:31:13;;;;;;;6.97;1.73;;;;;;;17.85;32.96;100976.69;5031732;28;20507;-64
2021/03/27 11:34:01;;;;;;;8.50;1.93;;;;;;;17.83;32.64;100990.97;5044437;28;20033;-64
2021/03/27 11:36:39;;;;;;;1.63;1.10;;;;;;;18.58;32.61;100977.63;5035711;28;20041;-65
2021/03/27 11:39:24;;;;;;;4.65;1.08;;;;;;;19.78;28.68;100973.81;5051738;28;20039;-65
2021/03/27 11:42:11;;;;;;;12.20;1.52;;;;;;;21.02;28.73;100989.72;5038020;28;20025;-65
2021/03/27 11:44:40;;;;;;;42.35;3.72;;;;;;;20.96;26.13;100987.31;5032406;28;20055;-66
2021/03/27 11:47:30;;;;;;;49.78;5.00;;;;;;;18.83;29.94;100987.38;5035395;28;20499;-65
2021/03/27 11:50:04;;;;;;;258.88;23.65;;;;;;;17.21;30.85;101009.00;5052200;28;20033;-64
2021/03/27 11:52:47;;;;;;;2.55;1.00;;;;;;;15.42;33.65;101017.38;5049617;28;20035;-65
2021/03/27 11:55:24;;;;;;;29.90;4.03;;;;;;;13.90;40.41;101116.78;5064532;28;20036;-64
2021/03/27 11:58:02;;;;;;;3.65;0.73;;;;;;;11.84;50.05;101154.25;5050886;28;20606;-64
2021/03/27 12:00:50;;;;;;;1.00;0.50;;;;;;;10.39;55.95;101178.50;5045069;28;20036;-64
2021/03/27 12:03:27;;;;;;;1.50;0.40;;;;;;;8.95;60.85;101203.53;5016772;28;20033;-64
2021/03/27 12:06:10;;;;;;;0.95;0.50;;;;;;;8.75;60.20;101221.81;5046398;28;20033;-64
2021/03/27 12:08:41;;;;;;;1.02;0.60;;;;;;;7.72;63.57;101221.69;5045991;28;20017;-64
2021/03/27 12:11:09;;;;;;;18.15;2.25;;;;;;;7.14;66.11;101231.47;5034496;28;20143;-65
2021/03/27 12:13:51;;;;;;;1.85;0.55;;;;;;;6.88;66.74;101220.59;5048467;28;20021;-64
2021/03/27 12:16:29;;;;;;;1.10;0.50;;;;;;;6.75;68.29;101202.06;5034024;28;20385;-64
2021/03/27 12:19:03;;;;;;;0.73;0.73;;;;;;;6.85;67.93;101200.47;5047163;28;20452;-64
2021/03/27 12:21:32;;;;;;;0.60;0.60;;;;;;;7.36;67.96;101199.38;5049916;28;20035;-63
2021/03/27 12:24:03;;;;;;;0.50;0.47;;;;;;;8.36;68.85;101197.81;5039004;28;20036;-64
2021/03/27 12:26:38;;;;;;;0.57;0.57;;;;;;;9.34;62.42;101195.84;5036537;28;20412;-64
2021/03/27 12:29:03;;;;;;;0.60;0.50;;;;;;;9.55;62.83;101213.50;5032501;28;20021;-64
2021/03/27 12:31:31;;;;;;;0.60;0.60;;;;;;;9.66;61.98;101210.88;5049982;28;20507;-64